(°C)
10°
10°
(°C)
SO
SO
S
SSE
SSE
SSE
SSE
(km/h)
6-6
5-6
4-7
4-4
5-5
6-9
8-12
(mm)
0
0
0.2
0
0
0
0
(%)
7
19
43
8
2
1
1

Élévation du soleil

/ -29.6°
sun-icon
UV 2
06:34
18:17
Premier croissant (70°)
13:40
20:38

METAR pour 52.17°N 20.97°E (EPWA)

Heure Conditions Température/
Point de rosée
Vent Visibilité Météo Nuages Pression Changement Brut
VFR 10°C / 9°C 250º 3kt >10km - Clouds and Visibility OK 1014 No Significant change EPWA 010100Z 25003KT CAVOK 10/09 Q1014 NOSIG
VFR 10°C / 9°C 280º 3kt >10km - Clouds and Visibility OK 1014 No Significant change EPWA 010030Z 28003KT CAVOK 10/09 Q1014 NOSIG
VFR 10°C / 9°C 290º 1kt >10km Light Rain 1.00mm precipitation Vertical Visibility of 0ft. 1014 No Significant change EPWA 010000Z 29001KT 9999 -RA FEW048 10/09 Q1014 NOSIG
VFR 10°C / 9°C 230º 2kt >10km Light Rain 1.00mm precipitation Vertical Visibility of 0ft.
Broken Clouds 4600ft
1014 No Significant change EPWA 302330Z 23002KT 9999 -RA FEW036 BKN046 10/09 Q1014 NOSIG
VFR 10°C / 9°C 260º 3kt >10km Light Rain 1.00mm precipitation Vertical Visibility of 0ft. 1014 No Significant change EPWA 302300Z 26003KT 9999 -RA SCT036 10/09 Q1014 NOSIG
VFR 10°C / 8°C 200º 2kt >10km - Broken Clouds 3600ft 1014 No Significant change EPWA 302230Z 20002KT 9999 BKN036 10/08 Q1014 NOSIG
VFR 10°C / 8°C variable 0kt >10km - Broken Clouds 3600ft 1014 No Significant change EPWA 302200Z 00000KT 9999 BKN036 10/08 Q1014 NOSIG
VFR 10°C / 8°C variable 0kt >10km - Broken Clouds 3800ft 1014 No Significant change EPWA 302130Z 00000KT 9999 BKN038 10/08 Q1014 NOSIG
VFR 10°C / 8°C variable 2kt >10km - Broken Clouds 3800ft 1014 No Significant change EPWA 302100Z VRB02KT 9999 BKN038 10/08 Q1014 NOSIG
VFR 10°C / 8°C 260º 2kt >10km - Broken Clouds 3600ft 1014 No Significant change EPWA 302030Z 26002KT 9999 BKN036 10/08 Q1014 NOSIG
VFR 10°C / 8°C 230º 3kt >10km - Broken Clouds 3600ft 1014 No Significant change EPWA 302000Z 23003KT 9999 BKN036 10/08 Q1014 NOSIG
VFR 11°C / 8°C variable 2kt >10km - Broken Clouds 3600ft 1014 No Significant change EPWA 301930Z VRB02KT 9999 BKN036 11/08 Q1014 NOSIG
VFR 11°C / 7°C 130º 4kt >10km - Broken Clouds 3600ft 1014 No Significant change EPWA 301900Z 13004KT 9999 BKN036 11/07 Q1014 NOSIG
VFR 12°C / 7°C 100º 5kt >10km - Broken Clouds 3700ft 1014 No Significant change EPWA 301830Z 10005KT 9999 BKN037 12/07 Q1014 NOSIG
VFR 12°C / 7°C 100º 4kt >10km - Few Clouds 2500ft
Broken Clouds 3900ft
1014 No Significant change EPWA 301800Z 10004KT 9999 FEW025 BKN039 12/07 Q1014 NOSIG
VFR 12°C / 7°C 110º 3kt >10km - Few Clouds 2600ft
Broken Clouds 4000ft
1014 No Significant change EPWA 301730Z 11003KT 9999 FEW026 BKN040 12/07 Q1014 NOSIG
VFR 12°C / 7°C 100º variable 060º to 130º 3kt >10km - Broken Clouds 4000ft 1014 No Significant change EPWA 301700Z 10003KT 060V130 9999 BKN040 12/07 Q1014 NOSIG
VFR 12°C / 7°C 80º variable 040º to 110º 3kt >10km - Broken Clouds 4000ft 1014 No Significant change EPWA 301630Z 08003KT 040V110 9999 BKN040 12/07 Q1014 NOSIG
VFR 12°C / 6°C 90º variable 060º to 120º 4kt >10km - Broken Clouds 4400ft 1013 No Significant change EPWA 301600Z 09004KT 060V120 9999 BKN044 12/06 Q1013 NOSIG
VFR 12°C / 6°C 100º 6kt >10km - Broken Clouds 4400ft 1013 No Significant change EPWA 301530Z 10006KT 9999 BKN044 12/06 Q1013 NOSIG
VFR 12°C / 6°C 110º 6kt >10km - Few Clouds 2600ft
Broken Clouds 4600ft
1013 No Significant change EPWA 301500Z 11006KT 9999 FEW026 BKN046 12/06 Q1013 NOSIG
VFR 13°C / 6°C 110º 6kt >10km - Few Clouds 2600ft
Broken Clouds 4800ft
1013 No Significant change EPWA 301430Z 11006KT 9999 FEW026 BKN048 13/06 Q1013 NOSIG
VFR 13°C / 6°C 110º 8kt >10km - Few Clouds 2600ft 1013 No Significant change EPWA 301400Z 11008KT 9999 FEW026 13/06 Q1013 NOSIG
VFR 13°C / 7°C 100º variable 070º to 130º 6kt >10km - Few Clouds 2600ft 1013 No Significant change EPWA 301330Z 10006KT 070V130 9999 FEW026 13/07 Q1013 NOSIG

VFR

10°C / 9°C

[Plus]
Vent 250º 3kt
Visibilité >10km
Météo -
Nuages Clouds and Visibility OK
Pression 1014
Changement No Significant change
Brut EPWA 010100Z 25003KT CAVOK 10/09 Q1014 NOSIG

VFR

10°C / 9°C

[Plus]
Vent 280º 3kt
Visibilité >10km
Météo -
Nuages Clouds and Visibility OK
Pression 1014
Changement No Significant change
Brut EPWA 010030Z 28003KT CAVOK 10/09 Q1014 NOSIG

VFR

10°C / 9°C

[Plus]
Vent 290º 1kt
Visibilité >10km
Météo Light Rain 1.00mm precipitation
Nuages Vertical Visibility of 0ft.
Pression 1014
Changement No Significant change
Brut EPWA 010000Z 29001KT 9999 -RA FEW048 10/09 Q1014 NOSIG

VFR

10°C / 9°C

[Plus]
Vent 230º 2kt
Visibilité >10km
Météo Light Rain 1.00mm precipitation
Nuages Vertical Visibility of 0ft.
Broken Clouds 4600ft
Pression 1014
Changement No Significant change
Brut EPWA 302330Z 23002KT 9999 -RA FEW036 BKN046 10/09 Q1014 NOSIG

VFR

10°C / 9°C

[Plus]
Vent 260º 3kt
Visibilité >10km
Météo Light Rain 1.00mm precipitation
Nuages Vertical Visibility of 0ft.
Pression 1014
Changement No Significant change
Brut EPWA 302300Z 26003KT 9999 -RA SCT036 10/09 Q1014 NOSIG

VFR

10°C / 8°C

[Plus]
Vent 200º 2kt
Visibilité >10km
Météo -
Nuages Broken Clouds 3600ft
Pression 1014
Changement No Significant change
Brut EPWA 302230Z 20002KT 9999 BKN036 10/08 Q1014 NOSIG

VFR

10°C / 8°C

[Plus]
Vent variable 0kt
Visibilité >10km
Météo -
Nuages Broken Clouds 3600ft
Pression 1014
Changement No Significant change
Brut EPWA 302200Z 00000KT 9999 BKN036 10/08 Q1014 NOSIG

VFR

10°C / 8°C

[Plus]
Vent variable 0kt
Visibilité >10km
Météo -
Nuages Broken Clouds 3800ft
Pression 1014
Changement No Significant change
Brut EPWA 302130Z 00000KT 9999 BKN038 10/08 Q1014 NOSIG

VFR

10°C / 8°C

[Plus]
Vent variable 2kt
Visibilité >10km
Météo -
Nuages Broken Clouds 3800ft
Pression 1014
Changement No Significant change
Brut EPWA 302100Z VRB02KT 9999 BKN038 10/08 Q1014 NOSIG

VFR

10°C / 8°C

[Plus]
Vent 260º 2kt
Visibilité >10km
Météo -
Nuages Broken Clouds 3600ft
Pression 1014
Changement No Significant change
Brut EPWA 302030Z 26002KT 9999 BKN036 10/08 Q1014 NOSIG

VFR

10°C / 8°C

[Plus]
Vent 230º 3kt
Visibilité >10km
Météo -
Nuages Broken Clouds 3600ft
Pression 1014
Changement No Significant change
Brut EPWA 302000Z 23003KT 9999 BKN036 10/08 Q1014 NOSIG

VFR

11°C / 8°C

[Plus]
Vent variable 2kt
Visibilité >10km
Météo -
Nuages Broken Clouds 3600ft
Pression 1014
Changement No Significant change
Brut EPWA 301930Z VRB02KT 9999 BKN036 11/08 Q1014 NOSIG

VFR

11°C / 7°C

[Plus]
Vent 130º 4kt
Visibilité >10km
Météo -
Nuages Broken Clouds 3600ft
Pression 1014
Changement No Significant change
Brut EPWA 301900Z 13004KT 9999 BKN036 11/07 Q1014 NOSIG

VFR

12°C / 7°C

[Plus]
Vent 100º 5kt
Visibilité >10km
Météo -
Nuages Broken Clouds 3700ft
Pression 1014
Changement No Significant change
Brut EPWA 301830Z 10005KT 9999 BKN037 12/07 Q1014 NOSIG

VFR

12°C / 7°C

[Plus]
Vent 100º 4kt
Visibilité >10km
Météo -
Nuages Few Clouds 2500ft
Broken Clouds 3900ft
Pression 1014
Changement No Significant change
Brut EPWA 301800Z 10004KT 9999 FEW025 BKN039 12/07 Q1014 NOSIG

VFR

12°C / 7°C

[Plus]
Vent 110º 3kt
Visibilité >10km
Météo -
Nuages Few Clouds 2600ft
Broken Clouds 4000ft
Pression 1014
Changement No Significant change
Brut EPWA 301730Z 11003KT 9999 FEW026 BKN040 12/07 Q1014 NOSIG

VFR

12°C / 7°C

[Plus]
Vent 100º variable 060º to 130º 3kt
Visibilité >10km
Météo -
Nuages Broken Clouds 4000ft
Pression 1014
Changement No Significant change
Brut EPWA 301700Z 10003KT 060V130 9999 BKN040 12/07 Q1014 NOSIG

VFR

12°C / 7°C

[Plus]
Vent 80º variable 040º to 110º 3kt
Visibilité >10km
Météo -
Nuages Broken Clouds 4000ft
Pression 1014
Changement No Significant change
Brut EPWA 301630Z 08003KT 040V110 9999 BKN040 12/07 Q1014 NOSIG

VFR

12°C / 6°C

[Plus]
Vent 90º variable 060º to 120º 4kt
Visibilité >10km
Météo -
Nuages Broken Clouds 4400ft
Pression 1013
Changement No Significant change
Brut EPWA 301600Z 09004KT 060V120 9999 BKN044 12/06 Q1013 NOSIG

VFR

12°C / 6°C

[Plus]
Vent 100º 6kt
Visibilité >10km
Météo -
Nuages Broken Clouds 4400ft
Pression 1013
Changement No Significant change
Brut EPWA 301530Z 10006KT 9999 BKN044 12/06 Q1013 NOSIG

VFR

12°C / 6°C

[Plus]
Vent 110º 6kt
Visibilité >10km
Météo -
Nuages Few Clouds 2600ft
Broken Clouds 4600ft
Pression 1013
Changement No Significant change
Brut EPWA 301500Z 11006KT 9999 FEW026 BKN046 12/06 Q1013 NOSIG

VFR

13°C / 6°C

[Plus]
Vent 110º 6kt
Visibilité >10km
Météo -
Nuages Few Clouds 2600ft
Broken Clouds 4800ft
Pression 1013
Changement No Significant change
Brut EPWA 301430Z 11006KT 9999 FEW026 BKN048 13/06 Q1013 NOSIG

VFR

13°C / 6°C

[Plus]
Vent 110º 8kt
Visibilité >10km
Météo -
Nuages Few Clouds 2600ft
Pression 1013
Changement No Significant change
Brut EPWA 301400Z 11008KT 9999 FEW026 13/06 Q1013 NOSIG

VFR

13°C / 7°C

[Plus]
Vent 100º variable 070º to 130º 6kt
Visibilité >10km
Météo -
Nuages Few Clouds 2600ft
Pression 1013
Changement No Significant change
Brut EPWA 301330Z 10006KT 070V130 9999 FEW026 13/07 Q1013 NOSIG

TAF pour 52.17°N 20.97°E (EPWA)

From till


From till Wind variable 2kt. Visibility 10km or more. Broken Clouds 3000ft.
Temporarly from till Visibility 4000m. Light Rain Mist . Broken Clouds 400ft.
Temporarly from till Broken Clouds 1100ft.
Becoming from till Wind 170º 10kt. Visibility 10km or more. Broken Clouds 3000ft.
Temporarly from till Showers Rain . Scattered Clouds 800ft. Broken Clouds 1400ft.

Brut: TAF EPWA 302330Z 0100/0124 VRB02KT 9999 BKN030 TEMPO 0100/0106 4000 -RA BR BKN004 TEMPO 0106/0109 BKN011 BECMG 0109/0111 17010KT TEMPO 0119/0124 SHRA SCT008 BKN014CB

Radar et prévision de précipitation à court terme pour 52.17°N 20.97°E

Bruine
Légère
Modéré
Fort
Très fort
Grêle

Le marqueur est placé sur 52.17°N 20.97°E. Cette animation montre le Radar des précipitations pour les dernières heures, ainsi qu'une 1h prévision. La bruine ou les légères chutes de neiges peuvent ne pas être détectées par le radar. L'intensité des précipitations est visible avec un code couleur allant du bleu clair au violet foncé et orange.

Les images satellites et les pluies actuelles pour 52.17°N 20.97°E

Le marqueur est placé sur 52.17°N 20.97°E. [Plus]

L'image satellite en temps réel combine la lumière visible pendant la journée et le rayonnement infrarouge pendant la nuit. La nuit, l'image n'est pas sombre car le rayonnement infrarouge permet de détecter les différences de température. Malheureusement, les nuages bas et le brouillard sont difficiles à distinguer des températures au sol et peuvent donc être presque invisibles pendant la nuit. Les images des satellites Météosat pour l'Europe sont mises à jour en temps réel toutes les 5 minutes. Les images GOES-16/GOES-17 (Amérique du Nord et du Sud) et Himawari (Asie) sont mises à jour toutes les 10 minutes.

Les précipitations sont estimées à partir de radars et de satellites. Les estimations des précipitations par satellite sont moins précises la nuit que le jour. Les croix oranges marquent les lieux où la foudre a été détectée (sur Europe).

Copyright 2022 EUMETSAT / meteoblue. Données de foudre fournies par nowcast.

Retour vers le haut